Time;durP1;ratioP1;P1;durP2;ratioP2;P2;SDS_P1;SDS_P2;PMS_P1;PMS_P2;Temp;Humidity;BMP_temperature;BMP_pressure;BME280_temperature;BME280_humidity;BME280_pressure;Samples;Min_cycle;Max_cycle;Signal;HPM_P1;HPM_P2
2022/04/14 00:00:34;;;;;;;6.40;3.55;;;;;;;;;;7389403;19;20002;-79
2022/04/14 00:02:59;;;;;;;10.05;3.00;;;;;;;;;;7388562;19;20007;-79
2022/04/14 00:05:24;;;;;;;3.53;2.42;;;;;;;;;;7389346;19;20011;-77
2022/04/14 00:07:53;;;;;;;4.25;2.88;;;;;;;;;;7390310;19;19994;-79
2022/04/14 00:10:18;;;;;;;7.68;3.13;;;;;;;;;;7390454;19;19999;-78
2022/04/14 00:12:45;;;;;;;3.92;2.80;;;;;;;;;;7388821;19;20009;-78
2022/04/14 00:15:11;;;;;;;5.90;2.97;;;;;;;;;;7392662;19;20028;-77
2022/04/14 00:17:36;;;;;;;4.15;2.65;;;;;;;;;;7389854;19;20110;-78
2022/04/14 00:20:05;;;;;;;4.03;2.67;;;;;;;;;;7390002;19;20007;-80
2022/04/14 00:22:30;;;;;;;5.32;3.00;;;;;;;;;;7395182;19;19999;-78
2022/04/14 00:24:55;;;;;;;5.30;3.22;;;;;;;;;;7396093;19;20025;-78
2022/04/14 00:27:21;;;;;;;5.15;3.03;;;;;;;;;;7398502;19;20002;-78
2022/04/14 00:29:46;;;;;;;5.82;3.38;;;;;;;;;;7398093;19;20019;-77
2022/04/14 00:32:12;;;;;;;7.10;2.67;;;;;;;;;;7396926;19;20019;-77
2022/04/14 00:34:38;;;;;;;5.78;2.90;;;;;;;;;;7398518;19;20014;-79
2022/04/14 00:37:04;;;;;;;6.07;3.33;;;;;;;;;;7396235;19;20016;-77
2022/04/14 00:39:29;;;;;;;6.20;3.60;;;;;;;;;;7395923;19;19999;-78
2022/04/14 00:41:54;;;;;;;5.45;3.20;;;;;;;;;;7394746;19;20477;-77
2022/04/14 00:44:19;;;;;;;6.47;3.20;;;;;;;;;;7397824;19;20519;-78
2022/04/14 00:46:45;;;;;;;6.63;2.70;;;;;;;;;;7395763;19;20006;-77
2022/04/14 00:49:10;;;;;;;6.10;2.88;;;;;;;;;;7393669;19;20304;-78
2022/04/14 00:51:35;;;;;;;6.20;3.00;;;;;;;;;;7395788;19;20003;-78
2022/04/14 00:54:00;;;;;;;5.95;3.13;;;;;;;;;;7396122;19;20006;-78
2022/04/14 00:56:26;;;;;;;5.20;2.80;;;;;;;;;;7393474;19;20012;-78
2022/04/14 00:58:51;;;;;;;4.53;2.55;;;;;;;;;;7399195;19;20021;-78
2022/04/14 01:01:17;;;;;;;4.88;2.80;;;;;;;;;;7398230;19;20017;-78
2022/04/14 01:03:45;;;;;;;7.45;3.17;;;;;;;;;;7395871;19;20453;-77
2022/04/14 01:06:14;;;;;;;5.35;2.45;;;;;;;;;;7394635;19;20003;-78
2022/04/14 01:08:40;;;;;;;7.10;3.10;;;;;;;;;;7394205;19;20590;-80
2022/04/14 01:11:05;;;;;;;6.47;3.28;;;;;;;;;;7394649;19;19999;-78
2022/04/14 01:13:30;;;;;;;7.53;3.15;;;;;;;;;;7395228;19;20042;-78
2022/04/14 01:15:58;;;;;;;7.53;2.72;;;;;;;;;;7393386;19;20006;-78
2022/04/14 01:18:23;;;;;;;4.50;2.63;;;;;;;;;;7395431;19;20021;-79
2022/04/14 01:20:49;;;;;;;6.22;3.88;;;;;;;;;;7394781;19;19998;-78
2022/04/14 01:23:18;;;;;;;6.40;3.60;;;;;;;;;;7392495;19;20002;-78
2022/04/14 01:25:44;;;;;;;4.78;2.75;;;;;;;;;;7394756;19;20026;-78
2022/04/14 01:28:09;;;;;;;6.95;3.20;;;;;;;;;;7393973;19;20046;-79
2022/04/14 01:30:36;;;;;;;5.03;2.72;;;;;;;;;;7395199;19;20065;-80
2022/04/14 01:33:02;;;;;;;6.43;3.13;;;;;;;;;;7392718;19;20002;-78
2022/04/14 01:35:27;;;;;;;9.27;3.13;;;;;;;;;;7397168;19;20014;-78
2022/04/14 01:37:52;;;;;;;5.97;3.10;;;;;;;;;;7395949;19;20009;-78
2022/04/14 01:40:19;;;;;;;4.57;3.13;;;;;;;;;;7395012;19;19987;-80
2022/04/14 01:42:44;;;;;;;4.65;2.90;;;;;;;;;;7392461;19;19991;-78
2022/04/14 01:45:10;;;;;;;4.40;2.78;;;;;;;;;;7394475;19;20010;-80
2022/04/14 01:47:44;;;;;;;5.25;2.58;;;;;;;;;;7397709;19;20002;-78
2022/04/14 01:50:12;;;;;;;5.63;2.78;;;;;;;;;;7397263;19;20002;-78
2022/04/14 01:52:38;;;;;;;3.83;2.88;;;;;;;;;;7397230;19;20014;-78
2022/04/14 01:55:04;;;;;;;4.25;2.63;;;;;;;;;;7394827;19;20058;-78
2022/04/14 01:57:29;;;;;;;5.03;2.83;;;;;;;;;;7396058;19;20028;-78
2022/04/14 01:59:56;;;;;;;6.43;3.35;;;;;;;;;;7392894;19;20002;-79
2022/04/14 02:02:21;;;;;;;4.80;3.35;;;;;;;;;;7395167;19;19995;-80
2022/04/14 02:04:46;;;;;;;5.63;3.22;;;;;;;;;;7394931;19;20016;-78
2022/04/14 02:07:11;;;;;;;3.90;2.72;;;;;;;;;;7398742;19;19995;-78
2022/04/14 02:09:37;;;;;;;4.15;2.70;;;;;;;;;;7395577;19;20006;-78
2022/04/14 02:12:04;;;;;;;3.88;2.45;;;;;;;;;;7394902;19;19995;-80
2022/04/14 02:14:29;;;;;;;5.00;2.97;;;;;;;;;;7393514;19;20023;-78
2022/04/14 02:16:55;;;;;;;6.35;3.45;;;;;;;;;;7393899;19;19994;-78
2022/04/14 02:19:20;;;;;;;3.58;2.42;;;;;;;;;;7395357;19;20476;-78
2022/04/14 02:21:45;;;;;;;11.82;4.60;;;;;;;;;;7396189;19;19991;-78
2022/04/14 02:24:10;;;;;;;11.40;5.20;;;;;;;;;;7396582;19;20002;-78
2022/04/14 02:26:36;;;;;;;21.35;7.78;;;;;;;;;;7396751;19;20011;-78
2022/04/14 02:29:01;;;;;;;15.63;6.63;;;;;;;;;;7394782;19;20002;-79
2022/04/14 02:31:26;;;;;;;12.20;4.88;;;;;;;;;;7395372;19;19998;-78
2022/04/14 02:33:51;;;;;;;7.53;3.75;;;;;;;;;;7395626;19;20002;-78
2022/04/14 02:36:17;;;;;;;5.50;3.28;;;;;;;;;;7393232;19;20339;-78
2022/04/14 02:38:43;;;;;;;6.53;3.13;;;;;;;;;;7398357;19;20029;-78
2022/04/14 02:41:09;;;;;;;5.82;3.00;;;;;;;;;;7397692;19;20043;-78
2022/04/14 02:43:37;;;;;;;4.82;2.60;;;;;;;;;;7395469;19;20433;-79
2022/04/14 02:46:02;;;;;;;4.93;2.50;;;;;;;;;;7393741;19;20012;-79
2022/04/14 02:48:27;;;;;;;8.05;2.65;;;;;;;;;;7394901;19;20022;-78
2022/04/14 02:50:52;;;;;;;5.32;2.90;;;;;;;;;;7395697;19;20058;-78
2022/04/14 02:53:18;;;;;;;3.50;2.50;;;;;;;;;;7395132;19;19995;-79
2022/04/14 02:55:43;;;;;;;5.30;3.10;;;;;;;;;;7394862;19;20042;-78
2022/04/14 02:58:08;;;;;;;8.07;2.67;;;;;;;;;;7395699;19;19998;-79
2022/04/14 03:00:34;;;;;;;7.55;3.28;;;;;;;;;;7395612;19;20342;-78
2022/04/14 03:03:00;;;;;;;4.15;2.60;;;;;;;;;;7393834;19;20014;-78
2022/04/14 03:05:25;;;;;;;6.57;3.00;;;;;;;;;;7393510;19;20010;-79
2022/04/14 03:07:50;;;;;;;6.00;3.15;;;;;;;;;;7394493;19;20035;-79
2022/04/14 03:10:15;;;;;;;4.00;2.80;;;;;;;;;;7392567;19;19998;-78
2022/04/14 03:12:42;;;;;;;4.43;2.80;;;;;;;;;;7395028;19;20017;-78
2022/04/14 03:15:07;;;;;;;5.00;3.08;;;;;;;;;;7392198;19;20012;-78
2022/04/14 03:17:33;;;;;;;5.25;3.08;;;;;;;;;;7394839;19;19994;-78
2022/04/14 03:19:58;;;;;;;5.20;2.83;;;;;;;;;;7393927;19;19999;-78
2022/04/14 03:22:23;;;;;;;4.93;2.80;;;;;;;;;;7392108;19;19999;-79
2022/04/14 03:24:48;;;;;;;9.95;3.80;;;;;;;;;;7394169;19;20441;-78
2022/04/14 03:27:13;;;;;;;13.52;6.47;;;;;;;;;;7396669;19;20001;-78
2022/04/14 03:29:41;;;;;;;11.52;4.97;;;;;;;;;;7396545;19;20011;-78
2022/04/14 03:32:06;;;;;;;8.18;4.00;;;;;;;;;;7393286;19;20096;-78
2022/04/14 03:34:32;;;;;;;6.65;3.47;;;;;;;;;;7394192;19;20064;-78
2022/04/14 03:36:57;;;;;;;6.10;3.25;;;;;;;;;;7394311;19;19999;-78
2022/04/14 03:39:22;;;;;;;16.10;7.30;;;;;;;;;;7391221;19;20386;-78
2022/04/14 03:41:48;;;;;;;8.88;5.10;;;;;;;;;;7392763;19;19999;-79
2022/04/14 03:44:13;;;;;;;9.73;4.68;;;;;;;;;;7394019;19;20336;-78
2022/04/14 03:46:38;;;;;;;9.15;4.82;;;;;;;;;;7390667;19;20005;-79
2022/04/14 03:49:03;;;;;;;11.73;5.45;;;;;;;;;;7393493;19;20020;-79
2022/04/14 03:51:29;;;;;;;12.20;6.45;;;;;;;;;;7393665;19;20016;-78
2022/04/14 03:53:54;;;;;;;9.00;4.70;;;;;;;;;;7393060;19;20458;-78
2022/04/14 03:56:19;;;;;;;6.75;4.00;;;;;;;;;;7397009;19;19999;-79
2022/04/14 03:58:45;;;;;;;8.93;3.75;;;;;;;;;;7400396;19;20105;-78
2022/04/14 04:01:10;;;;;;;6.45;3.97;;;;;;;;;;7400008;19;19999;-78
2022/04/14 04:03:35;;;;;;;8.25;3.95;;;;;;;;;;7401450;19;20394;-79
2022/04/14 04:06:00;;;;;;;5.85;3.58;;;;;;;;;;7401820;19;20007;-78
2022/04/14 04:08:26;;;;;;;5.22;3.30;;;;;;;;;;7402746;19;20464;-79
2022/04/14 04:10:51;;;;;;;5.43;3.40;;;;;;;;;;7400766;19;20002;-79
2022/04/14 04:13:16;;;;;;;5.78;3.28;;;;;;;;;;7402452;19;20336;-78
2022/04/14 04:15:41;;;;;;;5.93;3.20;;;;;;;;;;7399677;19;20007;-79
2022/04/14 04:18:07;;;;;;;5.38;3.40;;;;;;;;;;7405704;19;20006;-78
2022/04/14 04:20:33;;;;;;;5.85;3.40;;;;;;;;;;7402029;19;20094;-78
2022/04/14 04:22:58;;;;;;;5.32;3.22;;;;;;;;;;7399154;19;20047;-78
2022/04/14 04:25:24;;;;;;;6.13;3.75;;;;;;;;;;7402873;19;20016;-78
2022/04/14 04:27:49;;;;;;;5.53;3.15;;;;;;;;;;7401748;19;20018;-79
2022/04/14 04:30:14;;;;;;;10.27;3.25;;;;;;;;;;7401173;19;20036;-79
2022/04/14 04:32:40;;;;;;;5.97;2.97;;;;;;;;;;7403308;19;20404;-79
2022/04/14 04:35:06;;;;;;;5.13;2.83;;;;;;;;;;7401960;19;19995;-79
2022/04/14 04:37:32;;;;;;;3.83;2.83;;;;;;;;;;7406085;19;20021;-79
2022/04/14 04:39:58;;;;;;;7.20;2.80;;;;;;;;;;7400820;19;19999;-79
2022/04/14 04:42:24;;;;;;;6.13;3.83;;;;;;;;;;7401671;19;20026;-79
2022/04/14 04:44:49;;;;;;;7.38;3.35;;;;;;;;;;7403244;19;20045;-79
2022/04/14 04:47:15;;;;;;;4.40;2.78;;;;;;;;;;7403966;19;19999;-79
2022/04/14 04:49:41;;;;;;;7.97;3.63;;;;;;;;;;7403308;19;19999;-79
2022/04/14 04:52:06;;;;;;;14.35;8.23;;;;;;;;;;7405287;19;20026;-80
2022/04/14 04:54:32;;;;;;;10.10;6.15;;;;;;;;;;7403607;19;20453;-79
2022/04/14 04:56:57;;;;;;;10.90;5.80;;;;;;;;;;7404231;19;20056;-79
2022/04/14 04:59:22;;;;;;;9.43;5.32;;;;;;;;;;7403181;19;19998;-79
2022/04/14 05:01:47;;;;;;;9.02;4.72;;;;;;;;;;7403395;19;20037;-79
2022/04/14 05:04:13;;;;;;;9.15;4.65;;;;;;;;;;7416023;19;20018;-79
2022/04/14 05:06:38;;;;;;;11.82;5.85;;;;;;;;;;7424831;19;19994;-79
2022/04/14 05:09:05;;;;;;;14.73;7.03;;;;;;;;;;7429384;19;20026;-79
2022/04/14 05:11:30;;;;;;;22.83;9.65;;;;;;;;;;7426314;19;19994;-79
2022/04/14 05:13:56;;;;;;;11.40;6.43;;;;;;;;;;7425348;19;20001;-79
2022/04/14 05:16:21;;;;;;;9.93;4.90;;;;;;;;;;7400406;19;20006;-79
2022/04/14 05:18:46;;;;;;;7.45;4.30;;;;;;;;;;7398288;19;19998;-80
2022/04/14 05:21:12;;;;;;;9.10;4.55;;;;;;;;;;7399118;19;20066;-80
2022/04/14 05:23:37;;;;;;;5.80;3.90;;;;;;;;;;7398682;19;20002;-80
2022/04/14 05:26:03;;;;;;;5.75;3.97;;;;;;;;;;7398575;19;20354;-81
2022/04/14 05:28:28;;;;;;;9.57;4.40;;;;;;;;;;7398696;19;20422;-80
2022/04/14 05:30:53;;;;;;;8.63;5.10;;;;;;;;;;7399294;19;20011;-80
2022/04/14 05:33:19;;;;;;;12.85;5.10;;;;;;;;;;7398684;19;20107;-81
2022/04/14 05:35:44;;;;;;;10.50;4.90;;;;;;;;;;7400358;19;20050;-81
2022/04/14 05:38:10;;;;;;;10.15;5.20;;;;;;;;;;7398677;19;20538;-81
2022/04/14 05:40:41;;;;;;;6.10;4.20;;;;;;;;;;7398997;19;19998;-81
2022/04/14 05:43:08;;;;;;;6.68;4.35;;;;;;;;;;7397212;19;20009;-80
2022/04/14 05:45:34;;;;;;;10.82;4.47;;;;;;;;;;7398005;19;20101;-80
2022/04/14 05:47:59;;;;;;;8.98;4.65;;;;;;;;;;7397967;19;20580;-80
2022/04/14 05:50:24;;;;;;;7.85;4.07;;;;;;;;;;7394285;19;19995;-81
2022/04/14 05:52:50;;;;;;;11.05;4.38;;;;;;;;;;7395657;19;20065;-80
2022/04/14 05:55:15;;;;;;;11.02;5.00;;;;;;;;;;7414298;19;20006;-78
2022/04/14 05:57:40;;;;;;;7.40;4.05;;;;;;;;;;7412061;19;20003;-79
2022/04/14 06:00:06;;;;;;;6.47;4.28;;;;;;;;;;7399552;19;20014;-80
2022/04/14 06:02:32;;;;;;;5.70;3.70;;;;;;;;;;7398720;19;20407;-80
2022/04/14 06:04:57;;;;;;;8.57;4.43;;;;;;;;;;7405004;19;19997;-79
2022/04/14 06:07:22;;;;;;;7.07;4.13;;;;;;;;;;7394364;19;19991;-80
2022/04/14 06:09:47;;;;;;;8.25;5.05;;;;;;;;;;7393572;19;20461;-80
2022/04/14 06:12:12;;;;;;;8.75;4.55;;;;;;;;;;7392971;19;20428;-80
2022/04/14 06:14:38;;;;;;;9.52;5.18;;;;;;;;;;7394599;19;20026;-79
2022/04/14 06:17:03;;;;;;;8.75;4.45;;;;;;;;;;7393166;19;20142;-80
2022/04/14 06:19:29;;;;;;;12.73;5.40;;;;;;;;;;7395528;19;20005;-80
2022/04/14 06:21:54;;;;;;;9.20;5.10;;;;;;;;;;7393334;19;19990;-80
2022/04/14 06:24:19;;;;;;;8.63;5.38;;;;;;;;;;7394066;19;19995;-80
2022/04/14 06:26:44;;;;;;;8.93;4.53;;;;;;;;;;7393086;19;19992;-80
2022/04/14 06:29:10;;;;;;;7.93;4.18;;;;;;;;;;7393542;19;19987;-80
2022/04/14 06:31:35;;;;;;;7.55;4.57;;;;;;;;;;7396069;19;20078;-81
2022/04/14 06:34:02;;;;;;;9.63;5.55;;;;;;;;;;7395547;19;20406;-79
2022/04/14 06:36:27;;;;;;;9.73;5.40;;;;;;;;;;7395656;19;20070;-81
2022/04/14 06:38:53;;;;;;;7.90;4.93;;;;;;;;;;7394089;19;20006;-80
2022/04/14 06:41:18;;;;;;;11.18;6.00;;;;;;;;;;7393709;19;19994;-80
2022/04/14 06:43:45;;;;;;;13.23;5.90;;;;;;;;;;7394324;19;20003;-81
2022/04/14 06:46:10;;;;;;;12.00;5.70;;;;;;;;;;7393582;19;20027;-79
2022/04/14 06:48:35;;;;;;;14.20;6.15;;;;;;;;;;7397157;19;20124;-80
2022/04/14 06:51:01;;;;;;;9.20;4.72;;;;;;;;;;7393766;19;20003;-81
2022/04/14 06:53:27;;;;;;;11.50;5.05;;;;;;;;;;7393980;19;20162;-81
2022/04/14 06:55:53;;;;;;;8.00;5.32;;;;;;;;;;7392620;19;20062;-81
2022/04/14 06:58:19;;;;;;;8.30;4.82;;;;;;;;;;7397486;19;20063;-79
2022/04/14 07:00:45;;;;;;;12.20;5.75;;;;;;;;;;7399238;19;20026;-82
2022/04/14 07:03:10;;;;;;;8.50;5.10;;;;;;;;;;7399071;19;20376;-82
2022/04/14 07:05:35;;;;;;;8.70;5.35;;;;;;;;;;7395324;19;20426;-80
2022/04/14 07:08:00;;;;;;;8.05;4.95;;;;;;;;;;7395286;19;20006;-81
2022/04/14 07:10:27;;;;;;;10.23;5.18;;;;;;;;;;7396919;19;20006;-81
2022/04/14 07:12:53;;;;;;;8.23;4.90;;;;;;;;;;7393741;19;20003;-81
2022/04/14 07:15:18;;;;;;;8.95;5.03;;;;;;;;;;7392637;19;20006;-81
2022/04/14 07:17:44;;;;;;;9.55;5.35;;;;;;;;;;7394527;19;20005;-79
2022/04/14 07:20:09;;;;;;;9.43;5.45;;;;;;;;;;7394423;19;20007;-79
2022/04/14 07:22:45;;;;;;;13.38;5.60;;;;;;;;;;7393849;19;20003;-81
2022/04/14 07:25:11;;;;;;;11.38;5.38;;;;;;;;;;7394161;19;20019;-81
2022/04/14 07:27:36;;;;;;;7.47;5.18;;;;;;;;;;7393942;19;20089;-80
2022/04/14 07:30:03;;;;;;;11.00;5.55;;;;;;;;;;7391990;19;19995;-80
2022/04/14 07:32:34;;;;;;;9.23;5.03;;;;;;;;;;7400923;19;20006;-81
2022/04/14 07:34:59;;;;;;;9.52;5.05;;;;;;;;;;7400400;19;20013;-81
2022/04/14 07:37:25;;;;;;;8.52;5.18;;;;;;;;;;7404289;19;20007;-80
2022/04/14 07:39:50;;;;;;;11.07;5.53;;;;;;;;;;7399483;19;20401;-80
2022/04/14 07:42:15;;;;;;;10.13;5.68;;;;;;;;;;7399399;19;20005;-81
2022/04/14 07:44:40;;;;;;;7.22;4.50;;;;;;;;;;7400044;19;19998;-79
2022/04/14 07:47:06;;;;;;;8.38;4.60;;;;;;;;;;7400557;19;19999;-80
2022/04/14 07:49:32;;;;;;;7.82;4.78;;;;;;;;;;7399161;19;20031;-80
2022/04/14 07:51:57;;;;;;;6.88;4.70;;;;;;;;;;7400651;19;20070;-81
2022/04/14 07:54:22;;;;;;;10.20;5.50;;;;;;;;;;7399680;19;19999;-79
2022/04/14 07:56:48;;;;;;;9.85;4.97;;;;;;;;;;7400219;19;19998;-81
2022/04/14 07:59:13;;;;;;;7.28;4.78;;;;;;;;;;7399225;19;19995;-80
2022/04/14 08:01:38;;;;;;;11.55;5.03;;;;;;;;;;7398225;19;20014;-81
2022/04/14 08:04:03;;;;;;;13.70;5.15;;;;;;;;;;7399878;19;20065;-81
2022/04/14 08:06:31;;;;;;;6.80;4.18;;;;;;;;;;7396986;19;19994;-79
2022/04/14 08:08:56;;;;;;;10.57;4.75;;;;;;;;;;7399518;19;20006;-80
2022/04/14 08:11:21;;;;;;;9.88;4.63;;;;;;;;;;7397575;19;20048;-80
2022/04/14 08:13:47;;;;;;;9.30;5.03;;;;;;;;;;7398282;19;20001;-81
2022/04/14 08:16:12;;;;;;;18.10;5.25;;;;;;;;;;7395444;19;20488;-81
2022/04/14 08:18:39;;;;;;;9.13;4.95;;;;;;;;;;7396602;19;19991;-81
2022/04/14 08:21:06;;;;;;;6.15;4.57;;;;;;;;;;7397963;19;20005;-81
2022/04/14 08:23:32;;;;;;;7.60;4.95;;;;;;;;;;7396323;19;20454;-81
2022/04/14 08:25:58;;;;;;;7.03;5.13;;;;;;;;;;7402824;19;20088;-80
2022/04/14 08:28:23;;;;;;;12.43;4.88;;;;;;;;;;7408940;19;20074;-81
2022/04/14 08:30:49;;;;;;;7.13;5.15;;;;;;;;;;7393620;19;19999;-81
2022/04/14 08:33:16;;;;;;;9.85;5.72;;;;;;;;;;7397049;19;20046;-82
2022/04/14 08:35:42;;;;;;;9.27;4.70;;;;;;;;;;7396245;19;20058;-81
2022/04/14 08:38:08;;;;;;;8.73;5.32;;;;;;;;;;7396511;19;20002;-80
2022/04/14 08:40:38;;;;;;;8.05;5.18;;;;;;;;;;7396574;19;20089;-81
2022/04/14 08:43:10;;;;;;;9.05;4.65;;;;;;;;;;7395062;19;20010;-81
2022/04/14 08:45:47;;;;;;;9.90;4.60;;;;;;;;;;7396998;19;20011;-81
2022/04/14 08:48:14;;;;;;;7.40;4.28;;;;;;;;;;7395343;19;19990;-81
2022/04/14 08:50:40;;;;;;;9.65;4.75;;;;;;;;;;7395623;19;20069;-80
2022/04/14 08:53:07;;;;;;;8.30;4.80;;;;;;;;;;7397055;19;20077;-81
2022/04/14 08:55:34;;;;;;;8.60;4.32;;;;;;;;;;7395865;19;20318;-80
2022/04/14 08:58:00;;;;;;;7.93;4.60;;;;;;;;;;7396257;19;20130;-81
2022/04/14 09:00:26;;;;;;;7.05;4.35;;;;;;;;;;7395409;19;19994;-81
2022/04/14 09:02:54;;;;;;;9.55;4.65;;;;;;;;;;7396686;19;20423;-81
2022/04/14 09:05:19;;;;;;;6.75;4.88;;;;;;;;;;7394118;19;20003;-80
2022/04/14 09:07:49;;;;;;;8.05;4.45;;;;;;;;;;7396235;19;20035;-80
2022/04/14 09:10:15;;;;;;;8.82;4.30;;;;;;;;;;7397008;19;20530;-81
2022/04/14 09:12:40;;;;;;;10.75;4.25;;;;;;;;;;7395529;19;20054;-81
2022/04/14 09:15:06;;;;;;;7.10;3.70;;;;;;;;;;7394812;19;20106;-80
2022/04/14 09:17:32;;;;;;;8.50;4.35;;;;;;;;;;7400871;19;20007;-80
2022/04/14 09:19:57;;;;;;;5.82;3.97;;;;;;;;;;7396191;19;20014;-81
2022/04/14 09:22:23;;;;;;;8.98;4.70;;;;;;;;;;7395092;19;19987;-80
2022/04/14 09:24:57;;;;;;;8.25;4.80;;;;;;;;;;7394176;19;20440;-80
2022/04/14 09:27:24;;;;;;;11.18;4.88;;;;;;;;;;7396041;19;20007;-81
2022/04/14 09:29:49;;;;;;;8.63;4.05;;;;;;;;;;7392478;19;19998;-80
2022/04/14 09:32:32;;;;;;;8.02;4.90;;;;;;;;;;7396082;19;20010;-80
2022/04/14 09:35:03;;;;;;;8.15;4.78;;;;;;;;;;7394660;19;20011;-81
2022/04/14 09:37:29;;;;;;;10.77;5.50;;;;;;;;;;7396224;19;19998;-81
2022/04/14 09:40:05;;;;;;;11.77;5.03;;;;;;;;;;7393587;19;20015;-81
2022/04/14 09:42:36;;;;;;;7.68;4.70;;;;;;;;;;7393955;19;20454;-80
2022/04/14 09:45:23;;;;;;;10.02;5.00;;;;;;;;;;7394554;19;19995;-81
2022/04/14 09:47:50;;;;;;;11.88;4.80;;;;;;;;;;7394927;19;20099;-80
2022/04/14 09:50:32;;;;;;;10.27;5.40;;;;;;;;;;7394136;19;20006;-81
2022/04/14 09:53:14;;;;;;;8.40;5.38;;;;;;;;;;7344360;19;20010;-80
2022/04/14 09:55:50;;;;;;;10.55;6.30;;;;;;;;;;7397991;19;20006;-81
2022/04/14 09:58:22;;;;;;;12.98;5.60;;;;;;;;;;7396140;19;19998;-82
2022/04/14 10:00:48;;;;;;;10.40;5.10;;;;;;;;;;7396835;19;20002;-81
2022/04/14 10:03:30;;;;;;;7.97;4.90;;;;;;;;;;7394681;19;20003;-81
2022/04/14 10:06:06;;;;;;;11.20;6.05;;;;;;;;;;7395502;19;20025;-81
2022/04/14 10:08:51;;;;;;;11.48;5.20;;;;;;;;;;7399144;19;20018;-82
2022/04/14 10:11:23;;;;;;;;;;;;;;;;;;7400325;19;20026;-82
2022/04/14 10:13:48;;;;;;;8.40;5.13;;;;;;;;;;7393248;19;20307;-81
2022/04/14 10:16:14;;;;;;;11.63;5.68;;;;;;;;;;7391920;19;20012;-81
2022/04/14 10:18:41;;;;;;;11.27;5.53;;;;;;;;;;7391659;19;20630;-80
2022/04/14 10:21:06;;;;;;;14.50;5.75;;;;;;;;;;7393573;19;20435;-81
2022/04/14 10:23:33;;;;;;;8.52;4.63;;;;;;;;;;7392486;19;20002;-81
2022/04/14 10:26:00;;;;;;;9.75;5.63;;;;;;;;;;7394503;19;20449;-80
2022/04/14 10:28:26;;;;;;;9.73;5.32;;;;;;;;;;7392875;19;20032;-81
2022/04/14 10:30:55;;;;;;;11.38;5.03;;;;;;;;;;7393859;19;20270;-81
2022/04/14 10:33:21;;;;;;;9.60;5.38;;;;;;;;;;7392516;19;20009;-80
2022/04/14 10:35:46;;;;;;;12.38;6.15;;;;;;;;;;7392470;19;19999;-80
2022/04/14 10:38:23;;;;;;;10.27;5.78;;;;;;;;;;7391613;19;20015;-81
2022/04/14 10:40:56;;;;;;;13.30;5.93;;;;;;;;;;7393262;19;20002;-81
2022/04/14 10:43:24;;;;;;;9.90;5.80;;;;;;;;;;7391594;19;19999;-81
2022/04/14 10:45:52;;;;;;;9.48;5.40;;;;;;;;;;7391810;19;20022;-81
2022/04/14 10:48:40;;;;;;;14.63;5.88;;;;;;;;;;7394199;19;19998;-81
2022/04/14 10:51:26;;;;;;;8.93;5.00;;;;;;;;;;7394396;19;19999;-81
2022/04/14 10:54:08;;;;;;;12.52;4.80;;;;;;;;;;7394289;19;20002;-80
2022/04/14 10:56:34;;;;;;;13.55;5.88;;;;;;;;;;7396982;19;20001;-81
2022/04/14 10:59:11;;;;;;;9.70;5.80;;;;;;;;;;7396086;19;20073;-80
2022/04/14 11:01:45;;;;;;;15.20;5.88;;;;;;;;;;7392677;19;20263;-81
2022/04/14 11:04:32;;;;;;;12.20;5.70;;;;;;;;;;7394070;19;20007;-82
2022/04/14 11:07:15;;;;;;;13.85;6.78;;;;;;;;;;7397260;19;20006;-80
2022/04/14 11:12:06;;;;;;;11.10;6.07;;;;;;;;;;7394258;19;20349;-81
2022/04/14 11:14:58;;;;;;;9.73;5.55;;;;;;;;;;7393596;19;20615;-81
2022/04/14 11:20:14;;;;;;;9.93;6.05;;;;;;;;;;7391515;19;20001;-81
2022/04/14 11:23:08;;;;;;;9.75;5.82;;;;;;;;;;7392395;19;19998;-81
2022/04/14 11:25:45;;;;;;;12.52;5.18;;;;;;;;;;7390691;19;20471;-81
2022/04/14 11:28:18;;;;;;;9.95;5.13;;;;;;;;;;7391398;19;19999;-81
2022/04/14 11:30:44;;;;;;;7.95;5.40;;;;;;;;;;7390399;19;19995;-81
2022/04/14 11:33:14;;;;;;;11.77;5.65;;;;;;;;;;7392366;19;20062;-81
2022/04/14 11:35:44;;;;;;;8.35;4.95;;;;;;;;;;7391059;19;20008;-81
2022/04/14 11:38:30;;;;;;;9.73;5.72;;;;;;;;;;7392114;19;20398;-81
2022/04/14 11:40:55;;;;;;;11.90;4.85;;;;;;;;;;7392784;19;19999;-81
2022/04/14 11:43:23;;;;;;;9.90;4.85;;;;;;;;;;7392248;19;20001;-81
2022/04/14 11:45:50;;;;;;;9.25;4.85;;;;;;;;;;7394571;19;20029;-81
2022/04/14 11:48:15;;;;;;;14.82;4.85;;;;;;;;;;7397978;19;20434;-81
2022/04/14 11:50:40;;;;;;;9.48;4.90;;;;;;;;;;7398322;19;20007;-82
2022/04/14 11:53:05;;;;;;;8.02;3.97;;;;;;;;;;7394053;19;19999;-80
2022/04/14 11:55:39;;;;;;;7.45;3.92;;;;;;;;;;7392952;19;20002;-82
2022/04/14 11:58:11;;;;;;;7.60;4.03;;;;;;;;;;7396153;19;20002;-79
2022/04/14 12:00:47;;;;;;;9.57;4.40;;;;;;;;;;7396515;19;19999;-81
2022/04/14 12:03:13;;;;;;;8.65;4.07;;;;;;;;;;7418244;19;20018;-79
2022/04/14 12:05:40;;;;;;;8.75;4.30;;;;;;;;;;7418724;19;20031;-79
2022/04/14 12:08:10;;;;;;;9.45;5.20;;;;;;;;;;7419128;19;20075;-79
2022/04/14 12:10:35;;;;;;;9.45;4.75;;;;;;;;;;7417286;19;20027;-79
2022/04/14 12:13:11;;;;;;;7.75;4.63;;;;;;;;;;7396841;19;20005;-81
2022/04/14 12:15:37;;;;;;;8.75;4.38;;;;;;;;;;7389952;19;19999;-81
2022/04/14 12:18:10;;;;;;;6.63;3.88;;;;;;;;;;7398097;19;20425;-81
2022/04/14 12:20:39;;;;;;;7.32;3.88;;;;;;;;;;7399505;19;20015;-81
2022/04/14 12:23:08;;;;;;;5.95;3.67;;;;;;;;;;7398370;19;20027;-81
2022/04/14 12:25:33;;;;;;;6.97;4.15;;;;;;;;;;7397308;19;20014;-81
2022/04/14 12:28:01;;;;;;;6.75;4.07;;;;;;;;;;7400746;19;20007;-80
2022/04/14 12:30:28;;;;;;;9.25;4.60;;;;;;;;;;7396674;19;20014;-82
2022/04/14 12:33:04;;;;;;;7.78;3.90;;;;;;;;;;7399149;19;19997;-82
2022/04/14 12:35:42;;;;;;;11.60;3.92;;;;;;;;;;7401160;19;20014;-81
2022/04/14 12:38:29;;;;;;;6.88;3.78;;;;;;;;;;7401305;19;20010;-81
2022/04/14 12:41:03;;;;;;;8.00;4.35;;;;;;;;;;7401677;19;19999;-80
2022/04/14 12:43:37;;;;;;;7.85;4.32;;;;;;;;;;7406064;19;19994;-80
2022/04/14 12:46:20;;;;;;;5.10;3.83;;;;;;;;;;7394706;19;20035;-81
2022/04/14 12:48:45;;;;;;;7.68;3.85;;;;;;;;;;7395697;19;20035;-80
2022/04/14 12:51:10;;;;;;;5.68;4.15;;;;;;;;;;7396577;19;20533;-81
2022/04/14 12:53:35;;;;;;;7.50;4.07;;;;;;;;;;7398595;19;20024;-81
2022/04/14 12:56:14;;;;;;;5.82;3.70;;;;;;;;;;7394048;19;20007;-81
2022/04/14 12:59:00;;;;;;;7.32;4.05;;;;;;;;;;7395934;19;20002;-81
2022/04/14 13:01:25;;;;;;;6.50;3.50;;;;;;;;;;7396642;19;20003;-80
2022/04/14 13:03:51;;;;;;;6.50;3.63;;;;;;;;;;7396994;19;20441;-80
2022/04/14 13:06:18;;;;;;;8.98;4.07;;;;;;;;;;7396588;19;20014;-80
2022/04/14 13:08:44;;;;;;;5.75;4.20;;;;;;;;;;7399751;19;20013;-80
2022/04/14 13:11:09;;;;;;;6.03;3.47;;;;;;;;;;7394271;19;19999;-80
2022/04/14 13:13:35;;;;;;;6.00;3.80;;;;;;;;;;7394072;19;20474;-79
2022/04/14 13:16:01;;;;;;;3.92;2.63;;;;;;;;;;7391990;19;20003;-79
2022/04/14 13:18:26;;;;;;;5.85;3.08;;;;;;;;;;7392697;19;19991;-80
2022/04/14 13:20:52;;;;;;;6.95;3.22;;;;;;;;;;7393919;19;20105;-80
2022/04/14 13:23:20;;;;;;;5.80;2.60;;;;;;;;;;7391721;19;19999;-80
2022/04/14 13:25:47;;;;;;;6.75;3.15;;;;;;;;;;7396423;19;20034;-80
2022/04/14 13:28:12;;;;;;;5.55;2.65;;;;;;;;;;7395440;19;20012;-80
2022/04/14 13:30:38;;;;;;;5.20;3.15;;;;;;;;;;7392492;19;19998;-80
2022/04/14 13:33:04;;;;;;;4.57;3.08;;;;;;;;;;7393028;19;20007;-79
2022/04/14 13:35:29;;;;;;;4.43;2.65;;;;;;;;;;7392265;19;19999;-80
2022/04/14 13:37:55;;;;;;;6.28;3.13;;;;;;;;;;7394085;19;20061;-80
2022/04/14 13:40:20;;;;;;;4.88;2.60;;;;;;;;;;7414144;19;20404;-79
2022/04/14 13:42:46;;;;;;;5.22;2.67;;;;;;;;;;7407512;19;20024;-81
2022/04/14 13:45:13;;;;;;;6.95;2.28;;;;;;;;;;7393996;19;20454;-79
2022/04/14 13:47:42;;;;;;;3.83;2.88;;;;;;;;;;7394500;19;20002;-80
2022/04/14 13:50:09;;;;;;;3.72;2.50;;;;;;;;;;7393517;19;19994;-80
2022/04/14 13:52:34;;;;;;;8.00;3.00;;;;;;;;;;7393385;19;19999;-80
2022/04/14 13:54:59;;;;;;;4.78;2.58;;;;;;;;;;7392983;19;20074;-80
2022/04/14 13:57:25;;;;;;;7.72;2.55;;;;;;;;;;7394884;19;20005;-81
2022/04/14 13:59:50;;;;;;;4.80;2.60;;;;;;;;;;7397681;19;20018;-81
2022/04/14 14:02:16;;;;;;;4.82;2.58;;;;;;;;;;7393500;19;20003;-80
2022/04/14 14:04:42;;;;;;;6.57;2.88;;;;;;;;;;7392970;19;20014;-80
2022/04/14 14:07:07;;;;;;;3.92;2.67;;;;;;;;;;7393315;19;20007;-80
2022/04/14 14:09:32;;;;;;;4.07;2.60;;;;;;;;;;7392605;19;20001;-81
2022/04/14 14:11:58;;;;;;;5.03;2.75;;;;;;;;;;7393298;19;20022;-81
2022/04/14 14:14:24;;;;;;;4.93;2.67;;;;;;;;;;7395348;19;20007;-80
2022/04/14 14:16:49;;;;;;;6.55;2.47;;;;;;;;;;7394255;19;20015;-80
2022/04/14 14:19:17;;;;;;;4.72;2.20;;;;;;;;;;7393323;19;19995;-79
2022/04/14 14:21:43;;;;;;;3.53;2.03;;;;;;;;;;7394494;19;20002;-79
2022/04/14 14:24:08;;;;;;;6.32;2.50;;;;;;;;;;7395377;19;19998;-79
2022/04/14 14:26:36;;;;;;;5.47;2.58;;;;;;;;;;7393758;19;20021;-79
2022/04/14 14:29:02;;;;;;;5.28;2.40;;;;;;;;;;7393060;19;20007;-79
2022/04/14 14:31:27;;;;;;;4.50;2.47;;;;;;;;;;7396307;19;19995;-79
2022/04/14 14:33:53;;;;;;;4.05;2.05;;;;;;;;;;7394350;19;20002;-79
2022/04/14 14:36:18;;;;;;;4.68;1.50;;;;;;;;;;7393827;19;20027;-79
2022/04/14 14:38:46;;;;;;;4.13;2.10;;;;;;;;;;7397710;19;19999;-79
2022/04/14 14:41:12;;;;;;;4.05;2.20;;;;;;;;;;7393502;19;20002;-79
2022/04/14 14:43:39;;;;;;;5.90;2.45;;;;;;;;;;7392702;19;19995;-79
2022/04/14 14:46:05;;;;;;;4.30;2.35;;;;;;;;;;7390669;19;19995;-79